createdAt,value
2022-11-17T00:01:22.633Z,2.22
2022-11-17T00:06:20.926Z,1.95
2022-11-17T00:11:15.139Z,2.30
2022-11-17T00:16:13.001Z,3.45
2022-11-17T00:21:24.322Z,2.97
2022-11-17T00:26:26.103Z,3.33
2022-11-17T00:31:37.925Z,2.35
2022-11-17T00:36:31.522Z,3.38
2022-11-17T00:41:24.770Z,2.90
2022-11-17T00:46:19.072Z,2.22
2022-11-17T00:51:13.891Z,4.25
2022-11-17T00:56:12.855Z,3.47
2022-11-17T01:01:07.972Z,2.55
2022-11-17T01:06:12.907Z,4.40
2022-11-17T01:11:11.574Z,6.93
2022-11-17T01:16:07.765Z,2.80
2022-11-17T01:21:27.657Z,4.18
2022-11-17T01:26:28.133Z,3.92
2022-11-17T01:31:26.668Z,2.60
2022-11-17T01:36:24.928Z,3.28
2022-11-17T01:41:41.643Z,4.15
2022-11-17T01:46:38.923Z,2.53
2022-11-17T01:51:35.238Z,1.85
2022-11-17T01:56:39.088Z,4.20
2022-11-17T02:01:33.613Z,2.80
2022-11-17T02:06:36.737Z,2.85
2022-11-17T02:11:36.873Z,3.38
2022-11-17T02:16:30.793Z,3.10
2022-11-17T02:21:38.732Z,2.33
2022-11-17T02:26:52.916Z,3.70
2022-11-17T02:31:51.575Z,4.32
2022-11-17T02:37:03.781Z,4.50
2022-11-17T02:42:08.462Z,2.75
2022-11-17T02:47:28.736Z,1.52
2022-11-17T02:52:24.199Z,3.10
2022-11-17T02:57:33.338Z,1.95
2022-11-17T03:02:54.343Z,1.60
2022-11-17T03:07:55.982Z,4.18
2022-11-17T03:13:40.991Z,2.17
2022-11-17T03:18:52.495Z,2.10
2022-11-17T03:28:47.114Z,2.22
2022-11-17T03:33:43.045Z,2.38
2022-11-17T03:38:44.578Z,2.05
2022-11-17T03:43:40.930Z,2.08
2022-11-17T03:48:43.884Z,1.67
2022-11-17T03:53:38.798Z,3.42
2022-11-17T03:58:36.037Z,1.52
2022-11-17T04:03:50.852Z,1.92
2022-11-17T04:08:44.812Z,2.33
2022-11-17T04:13:56.669Z,1.90
2022-11-17T04:18:55.901Z,3.85
2022-11-17T04:23:52.787Z,1.85
2022-11-17T04:28:48.872Z,2.97
2022-11-17T04:33:44.825Z,2.50
2022-11-17T04:38:45.377Z,1.73
2022-11-17T04:43:43.159Z,1.27
2022-11-17T04:48:38.272Z,1.38
2022-11-17T04:53:32.519Z,1.90
2022-11-17T04:58:26.786Z,1.60
2022-11-17T05:03:20.256Z,1.80
2022-11-17T05:08:14.642Z,1.70
2022-11-17T05:13:25.737Z,1.40
2022-11-17T05:23:31.291Z,2.90
2022-11-17T05:28:25.120Z,2.45
2022-11-17T05:33:18.867Z,1.90
2022-11-17T05:38:13.158Z,2.28
2022-11-17T05:43:07.565Z,1.98
2022-11-17T05:48:01.002Z,1.35
2022-11-17T05:52:54.749Z,2.88
2022-11-17T05:57:49.256Z,1.55
2022-11-17T06:02:48.708Z,2.40
2022-11-17T06:07:42.958Z,1.90
2022-11-17T06:12:36.421Z,2.47
2022-11-17T06:17:35.821Z,1.90
2022-11-17T06:22:30.827Z,1.30
2022-11-17T06:27:26.435Z,1.60
2022-11-17T06:32:20.318Z,2.55
2022-11-17T06:37:14.577Z,1.55
2022-11-17T06:42:11.718Z,4.32
2022-11-17T06:47:05.329Z,2.85
2022-11-17T06:51:58.245Z,2.22
2022-11-17T06:56:53.101Z,7.13
2022-11-17T07:01:46.764Z,4.00
2022-11-17T07:06:41.125Z,3.97
2022-11-17T07:11:38.377Z,7.32
2022-11-17T07:16:33.039Z,5.63
2022-11-17T07:21:27.207Z,6.55
2022-11-17T07:26:20.319Z,6.63
2022-11-17T07:31:14.967Z,4.63
2022-11-17T07:36:10.806Z,5.68
2022-11-17T07:41:05.769Z,5.70
2022-11-17T07:45:59.587Z,3.03
2022-11-17T07:50:53.199Z,6.88
2022-11-17T07:55:46.628Z,10.13
2022-11-17T08:00:39.571Z,6.13
2022-11-17T08:05:41.667Z,7.13
2022-11-17T08:10:37.419Z,7.28
2022-11-17T08:15:31.895Z,5.40
2022-11-17T08:20:27.426Z,5.13
2022-11-17T08:25:23.145Z,5.82
2022-11-17T08:30:17.951Z,7.80
2022-11-17T08:35:11.571Z,5.88
2022-11-17T08:40:07.254Z,5.82
2022-11-17T08:45:01.105Z,4.97
2022-11-17T08:49:55.265Z,8.90
2022-11-17T08:54:48.256Z,4.15
2022-11-17T08:59:41.005Z,4.18
2022-11-17T09:04:34.616Z,5.28
2022-11-17T09:09:30.354Z,6.28
2022-11-17T09:14:23.439Z,5.30
2022-11-17T09:19:20.809Z,7.28
2022-11-17T09:24:14.709Z,6.70
2022-11-17T09:29:09.811Z,4.47
2022-11-17T09:34:05.649Z,7.47
2022-11-17T09:39:00.033Z,5.30
2022-11-17T09:44:00.159Z,5.60
2022-11-17T09:49:15.648Z,6.88
2022-11-17T09:54:24.022Z,9.38
2022-11-17T09:59:22.200Z,5.50
2022-11-17T10:04:17.829Z,3.85
2022-11-17T10:09:22.504Z,6.35
2022-11-17T10:14:23.352Z,5.55
2022-11-17T10:19:36.361Z,7.32
2022-11-17T10:24:35.522Z,5.85
2022-11-17T10:29:28.970Z,5.70
2022-11-17T10:34:41.353Z,5.32
2022-11-17T10:39:43.257Z,6.20
2022-11-17T10:44:42.802Z,5.47
2022-11-17T10:49:44.861Z,8.45
2022-11-17T10:54:39.649Z,5.60
2022-11-17T10:59:47.859Z,6.13
2022-11-17T11:04:42.886Z,6.65
2022-11-17T11:09:42.429Z,9.40
2022-11-17T11:14:44.987Z,6.30
2022-11-17T11:19:38.877Z,6.80
2022-11-17T11:25:12.848Z,12.00
2022-11-17T11:30:11.670Z,7.28
2022-11-17T11:35:17.128Z,8.02
2022-11-17T11:40:27.555Z,8.70
2022-11-17T11:45:29.187Z,7.68
2022-11-17T11:50:31.333Z,7.75
2022-11-17T11:55:32.384Z,7.72
2022-11-17T12:00:26.105Z,7.60
2022-11-17T12:05:40.881Z,8.43
2022-11-17T12:10:55.861Z,6.55
2022-11-17T12:15:49.462Z,5.75
2022-11-17T12:20:57.285Z,8.93
2022-11-17T12:25:54.514Z,5.75
2022-11-17T12:30:47.851Z,6.85
2022-11-17T12:35:40.587Z,7.57
2022-11-17T12:40:39.560Z,8.52
2022-11-17T12:45:58.642Z,7.43
2022-11-17T12:51:04.964Z,9.10
2022-11-17T12:56:16.565Z,11.05
2022-11-17T13:01:27.731Z,10.35
2022-11-17T13:06:34.827Z,8.90
2022-11-17T13:11:30.388Z,13.20
2022-11-17T13:16:24.117Z,13.60
2022-11-17T13:21:26.570Z,16.73
2022-11-17T13:26:22.217Z,11.82
2022-11-17T13:31:26.983Z,14.10
2022-11-17T13:36:25.272Z,10.75
2022-11-17T13:41:19.411Z,10.45
2022-11-17T13:46:12.834Z,13.90
2022-11-17T13:51:21.436Z,13.93
2022-11-17T13:56:39.426Z,9.25
2022-11-17T14:01:33.787Z,13.02
2022-11-17T14:06:27.803Z,8.32
2022-11-17T14:11:22.112Z,7.82
2022-11-17T14:16:42.931Z,7.13
2022-11-17T14:21:38.082Z,6.97
2022-11-17T14:26:31.453Z,6.32
2022-11-17T14:31:44.544Z,4.88
2022-11-17T14:36:58.060Z,7.38
2022-11-17T14:41:51.578Z,5.82
2022-11-17T14:46:49.288Z,5.00
2022-11-17T14:51:42.623Z,5.72
2022-11-17T14:57:19.522Z,7.80
2022-11-17T15:02:13.282Z,4.90
2022-11-17T15:07:08.353Z,5.20
2022-11-17T15:12:02.466Z,7.05
2022-11-17T15:16:56.386Z,6.05
2022-11-17T15:21:49.889Z,9.25
2022-11-17T15:26:45.094Z,5.68
2022-11-17T15:31:38.477Z,4.32
2022-11-17T15:36:32.874Z,6.70
2022-11-17T15:41:31.458Z,5.03
2022-11-17T15:46:27.100Z,4.73
2022-11-17T15:51:21.764Z,6.85
2022-11-17T15:56:19.871Z,6.45
2022-11-17T16:01:27.917Z,7.65
2022-11-17T16:06:22.020Z,5.90
2022-11-17T16:11:15.752Z,7.00
2022-11-17T16:16:14.338Z,5.05
2022-11-17T16:21:11.276Z,5.95
2022-11-17T16:26:05.341Z,4.80
2022-11-17T16:30:58.417Z,5.80
2022-11-17T16:35:52.095Z,4.93
2022-11-17T16:40:45.212Z,5.05
2022-11-17T16:45:43.744Z,6.20
2022-11-17T16:50:39.797Z,6.88
2022-11-17T16:55:37.933Z,6.28
2022-11-17T17:00:31.702Z,6.47
2022-11-17T17:05:26.535Z,6.32
2022-11-17T17:10:20.431Z,5.55
2022-11-17T17:15:14.164Z,5.57
2022-11-17T17:20:11.717Z,6.80
2022-11-17T17:25:07.984Z,8.40
2022-11-17T17:30:01.365Z,6.57
2022-11-17T17:34:55.633Z,5.82
2022-11-17T17:39:49.439Z,6.22
2022-11-17T17:44:42.852Z,6.70
2022-11-17T17:49:37.301Z,8.80
2022-11-17T17:54:30.677Z,6.45
2022-11-17T17:59:24.688Z,6.80
2022-11-17T18:04:17.816Z,6.88
2022-11-17T18:09:13.468Z,8.27
2022-11-17T18:14:08.022Z,7.50
2022-11-17T18:19:07.300Z,11.40
2022-11-17T18:24:02.424Z,9.63
2022-11-17T18:29:03.277Z,16.27
2022-11-17T18:34:00.287Z,23.10
2022-11-17T18:38:54.550Z,23.65
2022-11-17T18:43:49.698Z,35.97
2022-11-17T18:48:44.956Z,32.53
2022-11-17T18:53:38.813Z,28.42
2022-11-17T18:58:32.435Z,28.23
2022-11-17T19:03:25.415Z,25.05
2022-11-17T19:08:19.321Z,30.35
2022-11-17T19:13:17.279Z,27.60
2022-11-17T19:18:11.329Z,23.75
2022-11-17T19:23:05.841Z,23.02
2022-11-17T19:28:00.287Z,22.85
2022-11-17T19:32:54.848Z,19.63
2022-11-17T19:37:48.656Z,18.08
2022-11-17T19:42:43.297Z,19.70
2022-11-17T19:47:37.207Z,29.13
2022-11-17T19:52:31.569Z,32.17
2022-11-17T19:57:25.689Z,28.58
2022-11-17T20:02:19.443Z,32.05
2022-11-17T20:07:13.055Z,38.58
2022-11-17T20:12:08.202Z,28.88
2022-11-17T20:17:01.842Z,19.25
2022-11-17T20:21:55.585Z,16.40
2022-11-17T20:26:49.639Z,11.55
2022-11-17T20:31:43.265Z,9.55
2022-11-17T20:36:37.874Z,9.82
2022-11-17T20:41:31.603Z,8.60
2022-11-17T20:46:25.325Z,6.78
2022-11-17T20:51:20.946Z,6.70
2022-11-17T20:56:19.789Z,5.45
2022-11-17T21:01:15.857Z,8.43
2022-11-17T21:06:08.654Z,5.90
2022-11-17T21:11:37.365Z,5.85
2022-11-17T21:16:50.501Z,10.73
2022-11-17T21:22:23.315Z,3.85
2022-11-17T21:27:57.253Z,3.58
2022-11-17T21:33:09.595Z,5.43
2022-11-17T21:38:03.260Z,2.78
2022-11-17T21:42:56.898Z,3.97
2022-11-17T21:47:56.512Z,4.28
2022-11-17T21:52:52.359Z,3.30
2022-11-17T21:57:45.114Z,4.07
2022-11-17T22:02:38.755Z,3.85
2022-11-17T22:07:32.276Z,4.15
2022-11-17T22:12:25.416Z,5.75
2022-11-17T22:17:18.895Z,4.15
2022-11-17T22:22:12.614Z,5.00
2022-11-17T22:27:06.487Z,6.10
2022-11-17T22:32:00.762Z,5.32
2022-11-17T22:36:55.329Z,6.22
2022-11-17T22:41:49.831Z,6.38
2022-11-17T22:46:44.030Z,5.90
2022-11-17T22:51:55.759Z,5.68
2022-11-17T22:56:48.482Z,5.68
2022-11-17T23:01:42.202Z,6.57
2022-11-17T23:06:35.823Z,5.68
2022-11-17T23:11:36.908Z,7.35
2022-11-17T23:16:31.257Z,6.25
2022-11-17T23:21:24.900Z,7.82
2022-11-17T23:26:19.190Z,5.80
2022-11-17T23:31:14.897Z,7.75
2022-11-17T23:36:17.821Z,6.25
2022-11-17T23:41:14.126Z,8.00
2022-11-17T23:46:15.993Z,10.15
2022-11-17T23:51:10.913Z,9.77
2022-11-17T23:56:05.241Z,11.43
